Time,TemperatureF,DewpointF,PressureIn,WindDirection,WindDirectionDegrees,WindSpeedMPH,WindSpeedGustMPH,Humidity,HourlyPrecipIn,Conditions,Clouds,dailyrainin,SoftwareType,DateUTC
2013-08-02 00:15:00,62.5,61.0,29.94,ENE,69,0.0,0.0,93,0.00,,,0.01,weatherlink.com 1.10,2013-08-02 04:15:00,
2013-08-02 00:30:00,62.5,61.0,29.94,ENE,69,0.0,0.0,93,0.00,,,0.01,weatherlink.com 1.10,2013-08-02 04:30:00,
2013-08-02 00:45:00,62.7,61.0,29.94,ENE,69,0.0,1.0,94,0.00,,,0.01,weatherlink.com 1.10,2013-08-02 04:45:00,
2013-08-02 01:00:00,62.7,61.0,29.95,ENE,69,0.0,0.0,93,0.00,,,0.01,weatherlink.com 1.10,2013-08-02 05:00:00,
2013-08-02 01:15:00,62.7,61.0,29.95,ENE,69,0.0,0.0,94,0.00,,,0.01,weatherlink.com 1.10,2013-08-02 05:15:00,
2013-08-02 01:30:00,62.6,61.0,29.95,ENE,69,0.0,0.0,94,0.00,,,0.01,weatherlink.com 1.10,2013-08-02 05:30:00,
2013-08-02 01:45:00,62.5,61.0,29.95,ENE,69,0.0,1.0,94,0.00,,,0.01,weatherlink.com 1.10,2013-08-02 05:45:00,
2013-08-02 02:00:00,62.5,61.0,29.94,ENE,69,0.0,0.0,94,0.00,,,0.01,weatherlink.com 1.10,2013-08-02 06:00:00,
2013-08-02 02:15:00,62.4,61.0,29.94,ENE,69,0.0,0.0,94,0.00,,,0.01,weatherlink.com 1.10,2013-08-02 06:15:00,
2013-08-02 02:30:00,62.3,61.0,29.94,ENE,69,0.0,0.0,94,0.00,,,0.01,weatherlink.com 1.10,2013-08-02 06:30:00,
2013-08-02 02:45:00,62.1,60.0,29.93,ENE,69,0.0,0.0,94,0.00,,,0.01,weatherlink.com 1.10,2013-08-02 06:45:00,
2013-08-02 03:01:00,62.0,60.0,29.93,ENE,69,0.0,0.0,94,0.00,,,0.01,weatherlink.com 1.10,2013-08-02 07:01:00,
2013-08-02 03:15:00,61.9,60.0,29.93,ENE,69,0.0,0.0,94,0.00,,,0.01,weatherlink.com 1.10,2013-08-02 07:15:00,
2013-08-02 03:30:00,61.7,60.0,29.93,ENE,69,0.0,0.0,94,0.00,,,0.01,weatherlink.com 1.10,2013-08-02 07:30:00,
2013-08-02 03:45:00,61.6,60.0,29.93,ENE,69,0.0,0.0,94,0.00,,,0.01,weatherlink.com 1.10,2013-08-02 07:45:00,
2013-08-02 04:00:00,61.6,60.0,29.94,ENE,69,0.0,0.0,94,0.00,,,0.01,weatherlink.com 1.10,2013-08-02 08:00:00,
2013-08-02 04:15:00,61.7,60.0,29.94,ENE,69,0.0,0.0,94,0.00,,,0.01,weatherlink.com 1.10,2013-08-02 08:15:00,
2013-08-02 04:31:00,61.7,60.0,29.94,ENE,69,0.0,0.0,94,0.00,,,0.00,weatherlink.com 1.10,2013-08-02 08:31:00,
2013-08-02 04:46:00,61.6,60.0,29.95,ENE,69,0.0,0.0,94,0.00,,,0.00,weatherlink.com 1.10,2013-08-02 08:46:00,
2013-08-02 05:01:00,61.5,60.0,29.94,ENE,69,0.0,0.0,94,0.00,,,0.00,weatherlink.com 1.10,2013-08-02 09:01:00,
2013-08-02 05:15:00,61.7,60.0,29.94,ENE,77,0.0,0.0,94,0.00,,,0.00,weatherlink.com 1.10,2013-08-02 09:15:00,
2013-08-02 05:31:00,61.8,60.0,29.95,ENE,77,0.0,0.0,94,0.00,,,0.00,weatherlink.com 1.10,2013-08-02 09:31:00,
2013-08-02 05:46:00,61.7,60.0,29.96,ENE,77,0.0,0.0,94,0.00,,,0.00,weatherlink.com 1.10,2013-08-02 09:46:00,
2013-08-02 06:01:00,61.6,60.0,29.96,ENE,77,0.0,0.0,94,0.00,,,0.00,weatherlink.com 1.10,2013-08-02 10:01:00,
2013-08-02 06:16:00,61.3,60.0,29.96,ENE,77,0.0,0.0,94,0.00,,,0.00,weatherlink.com 1.10,2013-08-02 10:16:00,
2013-08-02 06:31:00,60.8,59.0,29.96,ENE,77,0.0,0.0,93,0.00,,,0.00,weatherlink.com 1.10,2013-08-02 10:31:00,
2013-08-02 06:47:00,60.8,59.0,29.97,ENE,77,0.0,0.0,94,0.00,,,0.00,weatherlink.com 1.10,2013-08-02 10:47:00,
2013-08-02 07:01:00,60.7,59.0,29.97,ENE,77,0.0,0.0,94,0.00,,,0.00,weatherlink.com 1.10,2013-08-02 11:01:00,
2013-08-02 07:16:00,60.8,59.0,29.98,ENE,77,0.0,0.0,94,0.00,,,0.00,weatherlink.com 1.10,2013-08-02 11:16:00,
2013-08-02 07:31:00,61.1,59.0,29.98,ENE,77,0.0,0.0,94,0.00,,,0.00,weatherlink.com 1.10,2013-08-02 11:31:00,
2013-08-02 07:46:00,61.6,60.0,29.99,ENE,77,0.0,0.0,95,0.00,,,0.00,weatherlink.com 1.10,2013-08-02 11:46:00,
2013-08-02 08:01:00,62.9,62.0,29.99,ENE,78,0.0,2.0,95,0.00,,,0.00,weatherlink.com 1.10,2013-08-02 12:01:00,
2013-08-02 08:46:00,64.3,61.0,29.98,East,91,0.0,5.0,89,0.00,,,0.00,weatherlink.com 1.10,2013-08-02 12:46:00,
2013-08-02 09:31:00,69.4,64.0,30.00,ENE,59,1.0,3.0,83,0.00,,,0.00,weatherlink.com 1.10,2013-08-02 13:31:00,
2013-08-02 10:01:00,72.8,64.0,30.00,East,90,0.0,6.0,73,0.00,,,0.00,weatherlink.com 1.10,2013-08-02 14:01:00,
2013-08-02 10:16:00,73.8,63.0,30.00,East,92,1.0,7.0,70,0.00,,,0.00,weatherlink.com 1.10,2013-08-02 14:16:00,
2013-08-02 10:31:00,74.4,62.0,29.99,East,81,3.0,6.0,66,0.00,,,0.00,weatherlink.com 1.10,2013-08-02 14:31:00,
2013-08-02 10:46:00,74.9,63.0,30.00,East,84,0.0,6.0,66,0.00,,,0.00,weatherlink.com 1.10,2013-08-02 14:46:00,
2013-08-02 11:01:00,76.0,62.0,30.00,East,98,1.0,6.0,63,0.00,,,0.00,weatherlink.com 1.10,2013-08-02 15:01:00,
2013-08-02 11:17:00,76.2,63.0,30.00,ESE,109,0.0,5.0,63,0.00,,,0.00,weatherlink.com 1.10,2013-08-02 15:17:00,
2013-08-02 11:34:00,77.3,63.0,30.00,ESE,105,0.0,3.0,61,0.00,,,0.00,weatherlink.com 1.10,2013-08-02 15:34:00,
2013-08-02 11:47:00,78.0,62.0,30.00,East,79,0.0,3.0,58,0.00,,,0.00,weatherlink.com 1.10,2013-08-02 15:47:00,
2013-08-02 12:02:00,78.4,62.0,30.00,East,85,0.0,5.0,57,0.00,,,0.00,weatherlink.com 1.10,2013-08-02 16:02:00,
2013-08-02 12:17:00,78.0,59.0,30.00,ESE,111,0.0,5.0,52,0.00,,,0.00,weatherlink.com 1.10,2013-08-02 16:17:00,
2013-08-02 12:32:00,78.2,60.0,30.00,East,86,0.0,7.0,54,0.00,,,0.00,weatherlink.com 1.10,2013-08-02 16:32:00,
2013-08-02 12:47:00,78.8,61.0,30.01,ESE,103,0.0,8.0,55,0.00,,,0.00,weatherlink.com 1.10,2013-08-02 16:47:00,
2013-08-02 13:02:00,78.6,60.0,30.01,East,87,0.0,5.0,53,0.00,,,0.00,weatherlink.com 1.10,2013-08-02 17:02:00,
2013-08-02 13:17:00,78.9,61.0,30.00,East,86,2.0,5.0,54,0.00,,,0.00,weatherlink.com 1.10,2013-08-02 17:17:00,
2013-08-02 13:32:00,79.4,62.0,30.00,ESE,105,0.0,5.0,55,0.00,,,0.00,weatherlink.com 1.10,2013-08-02 17:32:00,
2013-08-02 13:47:00,79.7,63.0,29.99,East,84,0.0,7.0,56,0.00,,,0.00,weatherlink.com 1.10,2013-08-02 17:47:00,
2013-08-02 14:02:00,80.7,62.0,29.99,East,92,0.0,3.0,53,0.00,,,0.00,weatherlink.com 1.10,2013-08-02 18:02:00,
2013-08-02 14:17:00,79.8,62.0,29.98,East,98,0.0,5.0,55,0.00,,,0.00,weatherlink.com 1.10,2013-08-02 18:17:00,
2013-08-02 14:32:00,80.4,61.0,29.98,East,82,0.0,3.0,52,0.00,,,0.00,weatherlink.com 1.10,2013-08-02 18:32:00,
2013-08-02 14:47:00,81.1,63.0,29.98,ESE,106,0.0,3.0,55,0.00,,,0.00,weatherlink.com 1.10,2013-08-02 18:47:00,
2013-08-02 15:02:00,80.8,63.0,29.98,ESE,104,0.0,3.0,55,0.00,,,0.00,weatherlink.com 1.10,2013-08-02 19:02:00,
2013-08-02 15:17:00,80.4,64.0,29.98,ESE,120,0.0,5.0,57,0.00,,,0.00,weatherlink.com 1.10,2013-08-02 19:17:00,
2013-08-02 15:32:00,79.9,62.0,29.98,East,80,3.0,8.0,55,0.00,,,0.00,weatherlink.com 1.10,2013-08-02 19:32:00,
2013-08-02 15:47:00,78.7,62.0,29.98,ESE,108,3.0,9.0,57,0.00,,,0.00,weatherlink.com 1.10,2013-08-02 19:47:00,
2013-08-02 16:02:00,77.8,62.0,29.98,ESE,103,1.0,8.0,58,0.00,,,0.00,weatherlink.com 1.10,2013-08-02 20:02:00,
2013-08-02 16:17:00,77.8,62.0,29.98,East,89,3.0,7.0,59,0.00,,,0.00,weatherlink.com 1.10,2013-08-02 20:17:00,
2013-08-02 16:32:00,77.4,62.0,29.98,ENE,63,4.0,8.0,59,0.00,,,0.00,weatherlink.com 1.10,2013-08-02 20:32:00,
2013-08-02 16:47:00,78.6,62.0,29.98,ENE,65,2.0,8.0,57,0.00,,,0.00,weatherlink.com 1.10,2013-08-02 20:47:00,
2013-08-02 17:02:00,78.7,62.0,29.98,East,99,2.0,8.0,56,0.00,,,0.00,weatherlink.com 1.10,2013-08-02 21:02:00,
2013-08-02 17:17:00,78.9,62.0,29.98,ENE,72,1.0,6.0,57,0.00,,,0.00,weatherlink.com 1.10,2013-08-02 21:17:00,
2013-08-02 17:32:00,79.3,62.0,29.98,ESE,102,3.0,7.0,56,0.00,,,0.00,weatherlink.com 1.10,2013-08-02 21:32:00,
2013-08-02 17:47:00,78.7,62.0,29.98,ENE,75,1.0,9.0,56,0.00,,,0.00,weatherlink.com 1.10,2013-08-02 21:47:00,
2013-08-02 18:02:00,78.2,62.0,29.98,ESE,123,1.0,6.0,58,0.00,,,0.00,weatherlink.com 1.10,2013-08-02 22:02:00,
2013-08-02 18:17:00,77.1,62.0,29.97,East,101,1.0,5.0,60,0.00,,,0.00,weatherlink.com 1.10,2013-08-02 22:17:00,
2013-08-02 18:32:00,76.1,62.0,29.97,East,84,3.0,6.0,62,0.00,,,0.00,weatherlink.com 1.10,2013-08-02 22:32:00,
2013-08-02 18:47:00,75.3,62.0,29.97,ENE,63,0.0,4.0,64,0.00,,,0.00,weatherlink.com 1.10,2013-08-02 22:47:00,
2013-08-02 19:02:00,74.6,63.0,29.98,ESE,123,0.0,2.0,67,0.00,,,0.00,weatherlink.com 1.10,2013-08-02 23:02:00,
2013-08-02 19:17:00,74.1,63.0,29.98,ESE,105,0.0,1.0,69,0.00,,,0.00,weatherlink.com 1.10,2013-08-02 23:17:00,
2013-08-02 19:32:00,73.8,64.0,29.98,ESE,105,1.0,1.0,72,0.00,,,0.00,weatherlink.com 1.10,2013-08-02 23:32:00,
2013-08-02 19:47:00,72.8,64.0,29.98,East,96,0.0,1.0,74,0.00,,,0.00,weatherlink.com 1.10,2013-08-02 23:47:00,
2013-08-02 20:02:00,71.6,63.0,29.98,East,96,0.0,2.0,75,0.00,,,0.00,weatherlink.com 1.10,2013-08-03 00:02:00,
2013-08-02 20:17:00,69.3,63.0,29.98,East,96,0.0,1.0,79,0.00,,,0.00,weatherlink.com 1.10,2013-08-03 00:17:00,
2013-08-02 20:32:00,68.4,62.0,29.99,East,96,0.0,1.0,81,0.00,,,0.00,weatherlink.com 1.10,2013-08-03 00:32:00,
2013-08-02 20:47:00,67.4,62.0,29.99,East,96,0.0,0.0,83,0.00,,,0.00,weatherlink.com 1.10,2013-08-03 00:47:00,
2013-08-02 21:02:00,66.7,62.0,30.00,East,96,0.0,1.0,85,0.00,,,0.00,weatherlink.com 1.10,2013-08-03 01:02:00,
2013-08-02 21:17:00,66.3,62.0,30.00,East,96,0.0,0.0,85,0.00,,,0.00,weatherlink.com 1.10,2013-08-03 01:17:00,
2013-08-02 21:32:00,65.7,62.0,30.01,East,96,0.0,0.0,87,0.00,,,0.00,weatherlink.com 1.10,2013-08-03 01:32:00,
2013-08-02 21:47:00,65.3,61.0,30.02,East,96,0.0,0.0,87,0.00,,,0.00,weatherlink.com 1.10,2013-08-03 01:47:00,
2013-08-02 22:02:00,64.8,62.0,30.02,East,96,0.0,0.0,89,0.00,,,0.00,weatherlink.com 1.10,2013-08-03 02:02:00,
2013-08-02 22:17:00,64.2,61.0,30.03,East,96,0.0,0.0,89,0.00,,,0.00,weatherlink.com 1.10,2013-08-03 02:17:00,
2013-08-02 22:32:00,64.0,61.0,30.03,East,96,0.0,1.0,90,0.00,,,0.00,weatherlink.com 1.10,2013-08-03 02:32:00,
2013-08-02 22:47:00,63.8,61.0,30.03,East,96,0.0,0.0,90,0.00,,,0.00,weatherlink.com 1.10,2013-08-03 02:47:00,
2013-08-02 23:02:00,63.5,61.0,30.03,East,96,0.0,0.0,91,0.00,,,0.00,weatherlink.com 1.10,2013-08-03 03:02:00,
2013-08-02 23:17:00,63.3,61.0,30.02,East,96,0.0,0.0,91,0.00,,,0.00,weatherlink.com 1.10,2013-08-03 03:17:00,
2013-08-02 23:32:00,63.0,60.0,30.02,East,96,0.0,0.0,91,0.00,,,0.00,weatherlink.com 1.10,2013-08-03 03:32:00,
2013-08-02 23:47:00,62.8,60.0,30.02,East,96,0.0,0.0,91,0.00,,,0.00,weatherlink.com 1.10,2013-08-03 03:47:00,